Sumisemaru No.5 — JE3162 — position and weather

sailwx.info

Track history (hours):
 
Tides and Currents Weather Stations Pressure Air Temp Water Temp Dewpoint Dewpoint Depression Visibility Wind Speed Wind Dir Waves Ship Positions

Sumisemaru No.5

Last reported at 2018-Feb-22 08:06 UTC. Time now 2018-Feb-24 04:15 UTC.
Position N 41°54' E 141°17'.

Length 96 m.

Type: Pleasure craft. MMSI: 431700423.

Date/timePositionNaut miles runAvg speedWind from/ knotsBaromVisibWave heightAir tempDewpointWater temp
2018-Feb-22 08:06N 41°54' E 141°17'113.0
2018-Feb-22 07:59N 41°52' E 141°16'612.9
2018-Feb-22 07:30N 41°46' E 141°13'713.0
2018-Feb-22 06:58N 41°42' E 141°06'714.1
2018-Feb-22 06:30N 41°39' E 140°59'815.3
2018-Feb-22 06:00N 41°35' E 140°50'714.2
2018-Feb-22 05:30N 41°31' E 140°42'714.6
2018-Feb-22 05:00N 41°26' E 140°34'  
2018-Feb-18 07:19N 34°30' E 130°58'512.8
2018-Feb-18 06:56N 34°27' E 130°54'613.0
2018-Feb-18 06:30N 34°23' E 130°48'612.7
2018-Feb-18 06:00N 34°19' E 130°43'612.6
2018-Feb-18 05:30N 34°14' E 130°39'612.7
2018-Feb-18 05:00N 34°09' E 130°34'612.7
2018-Feb-18 04:30N 34°04' E 130°29'612.4
2018-Feb-18 04:01N 33°59' E 130°24'612.2
2018-Feb-18 03:30N 33°55' E 130°19'612.0
2018-Feb-18 03:00N 33°51' E 130°13'612.1
2018-Feb-18 02:31N 33°48' E 130°07'611.9
2018-Feb-18 02:00N 33°45' E 130°01'612.0
2018-Feb-18 01:30N 33°42' E 129°55'1212.6
2018-Feb-18 00:35N 33°36' E 129°43'9 0.2
2018-Feb-16 08:34N 33°41' E 129°52'112.2
2018-Feb-16 08:29N 33°41' E 129°54'712.4
2018-Feb-16 07:57N 33°44' E 130°00'612.5
2018-Feb-16 07:30N 33°47' E 130°06'612.2
2018-Feb-16 07:00N 33°50' E 130°13'612.5
2018-Feb-16 06:30N 33°54' E 130°18'612.4
2018-Feb-16 06:00N 33°57' E 130°25'612.7
2018-Feb-16 05:30N 33°60' E 130°32'612.5
2018-Feb-16 05:00N 34°02' E 130°39'612.3
2018-Feb-16 04:30N 34°03' E 130°46'612.6
2018-Feb-16 04:01N 33°60' E 130°53'611.1
2018-Feb-16 03:30N 33°55' E 130°55'612.9
2018-Feb-16 03:00N 33°59' E 131°01'612.7
2018-Feb-16 02:31N 33°55' E 131°07'612.4
2018-Feb-16 02:00N 33°52' E 131°14'612.8
2018-Feb-16 01:30N 33°51' E 131°21'612.6
2018-Feb-16 01:00N 33°49' E 131°29'612.8
2018-Feb-16 00:31N 33°48' E 131°36'713.1
2018-Feb-16 00:00N 33°46' E 131°44'713.1
2018-Feb-15 23:29N 33°45' E 131°52'713.0
2018-Feb-15 22:59N 33°44' E 131°60'912.0
2018-Feb-15 22:16N 33°43' E 132°10'412.2
2018-Feb-15 21:55N 33°44' E 132°15'712.2
2018-Feb-15 21:19N 33°46' E 132°23'512.4
2018-Feb-15 20:56N 33°48' E 132°28'812.4
2018-Feb-15 20:19N 33°53' E 132°36'413.2
2018-Feb-15 20:00N 33°56' E 132°39'713.3
2018-Feb-15 19:30N 34°01' E 132°45'7511.6
2018-Feb-15 13:04N 34°25' E 134°10'412.9
2018-Feb-15 12:46N 34°24' E 134°15'413.4
2018-Feb-15 12:27N 34°24' E 134°20'613.0
2018-Feb-15 12:00N 34°28' E 134°26'1711.3
2018-Feb-15 10:28N 34°45' E 134°22'0 0.0
2018-Feb-14 23:45N 34°45' E 134°22'2 7.1
2018-Feb-14 23:25N 34°42' E 134°22'2 0.7
2018-Feb-14 21:06N 34°42' E 134°24'0 0.5
2018-Feb-14 21:00N 34°42' E 134°24'0 0.0
2018-Feb-14 20:30N 34°42' E 134°24'0 0.0
2018-Feb-14 19:54N 34°42' E 134°24'0 0.0
2018-Feb-14 19:30N 34°42' E 134°24'4 7.5
2018-Feb-14 19:01N 34°43' E 134°28'713.3
2018-Feb-14 18:30N 34°43' E 134°36'612.6
2018-Feb-14 18:00N 34°40' E 134°43'612.6
2018-Feb-14 17:30N 34°38' E 134°50'611.4
2018-Feb-14 17:00N 34°37' E 134°57'5 9.7
2018-Feb-14 16:30N 34°36' E 135°03'510.6
2018-Feb-14 16:00N 34°32' E 135°06'612.9
2018-Feb-14 15:30N 34°26' E 135°04'713.1
2018-Feb-14 15:00N 34°20' E 135°00'612.1
2018-Feb-14 14:30N 34°14' E 134°59'713.3
2018-Feb-14 14:00N 34°07' E 134°60'713.7
2018-Feb-14 13:30N 34°00' E 135°00'713.4
2018-Feb-14 13:00N 33°54' E 135°02'15410.1
2018-Feb-13 21:45N 34°31' E 138°02'311.4
2018-Feb-13 21:29N 34°31' E 138°05'610.2
2018-Feb-13 20:52N 34°31' E 138°13'410.0
2018-Feb-13 20:29N 34°31' E 138°18'610.1
2018-Feb-13 19:55N 34°31' E 138°25'4 9.5
2018-Feb-13 19:30N 34°31' E 138°30'5 9.7
2018-Feb-13 18:59N 34°31' E 138°36'7 9.6
2018-Feb-13 18:16N 34°31' E 138°44'2 8.6
2018-Feb-13 18:00N 34°31' E 138°47'4 8.4
2018-Feb-13 17:30N 34°31' E 138°52'4 8.6
2018-Feb-13 17:00N 34°32' E 138°57'4 8.7
2018-Feb-13 16:29N 34°35' E 139°00'5 9.3
2018-Feb-13 15:59N 34°39' E 139°04'710.9
2018-Feb-13 15:19N 34°44' E 139°10'411.7
2018-Feb-13 15:00N 34°47' E 139°13'611.8
2018-Feb-13 14:28N 34°51' E 139°18'510.7
2018-Feb-13 13:58N 34°54' E 139°24'510.1
2018-Feb-13 13:29N 34°57' E 139°28'510.9
2018-Feb-13 13:00N 35°00' E 139°34'611.9
2018-Feb-13 12:28N 35°04' E 139°40'512.0
2018-Feb-13 12:00N 35°08' E 139°44'612.8
2018-Feb-13 11:30N 35°14' E 139°46'612.6
2018-Feb-13 11:00N 35°20' E 139°42'611.9
2018-Feb-13 10:30N 35°26' E 139°41'0 0.1
2018-Feb-13 09:57N 35°26' E 139°41'0 0.0
2018-Feb-13 09:30N 35°26' E 139°41'0 0.0
2018-Feb-13 09:00N 35°26' E 139°41'0 0.0
2018-Feb-13 08:30N 35°26' E 139°41'0 0.0
2018-Feb-13 08:00N 35°26' E 139°41'0 0.0
2018-Feb-13 07:30N 35°26' E 139°41'0 0.0
2018-Feb-13 07:00N 35°26' E 139°41'0 0.0
2018-Feb-13 06:30N 35°26' E 139°41'0 0.0
2018-Feb-13 06:00N 35°26' E 139°41'0 0.0
2018-Feb-13 05:30N 35°26' E 139°41'0 0.0
2018-Feb-13 05:00N 35°26' E 139°41'0 0.0
2018-Feb-13 04:30N 35°26' E 139°41'0 0.0
2018-Feb-13 04:00N 35°26' E 139°41'0 0.0
2018-Feb-13 03:30N 35°26' E 139°41'0 0.0
2018-Feb-13 03:00N 35°26' E 139°41'0 0.0
2018-Feb-13 02:30N 35°26' E 139°41'0 0.0
2018-Feb-13 02:00N 35°26' E 139°41'0 0.0
2018-Feb-13 01:30N 35°26' E 139°41'0 0.0
2018-Feb-13 01:00N 35°26' E 139°41'0 0.0
2018-Feb-13 00:30N 35°26' E 139°41'0 0.0
2018-Feb-13 00:00N 35°26' E 139°41'0 0.0
2018-Feb-12 23:30N 35°26' E 139°41'0 0.0
2018-Feb-12 23:00N 35°26' E 139°41'0 0.1
2018-Feb-12 22:30N 35°26' E 139°41'3 6.3
2018-Feb-12 22:00N 35°23' E 139°43'611.8
2018-Feb-12 21:30N 35°17' E 139°45'611.6
2018-Feb-12 20:59N 35°11' E 139°46'612.4
2018-Feb-12 20:30N 35°06' E 139°44'712.2
2018-Feb-12 19:58N 34°60' E 139°40'512.1
2018-Feb-12 19:30N 34°55' E 139°36'813.3
2018-Feb-12 18:54N 34°54' E 139°27'1214.0
2018-Feb-12 18:04N 34°46' E 139°16'113.6
2018-Feb-12 18:00N 34°46' E 139°15'713.6
2018-Feb-12 17:30N 34°41' E 139°09'1313.3
2018-Feb-12 16:33N 34°32' E 138°58'113.3
2018-Feb-12 16:29N 34°31' E 138°57'  
Track history (hours):
 
Tides and Currents Weather Stations Pressure Air Temp Water Temp Dewpoint Dewpoint Depression Visibility Wind Speed Wind Dir Waves Ship Positions

Sumisemaru No.5

Last reported at 2018-Feb-22 08:06 UTC. Time now 2018-Feb-24 04:15 UTC.
Position N 41°54' E 141°17'.

Length 96 m.

Type: Pleasure craft. MMSI: 431700423.

Date/timePositionNaut miles runAvg speedWind from/ knotsBaromVisibWave heightAir tempDewpointWater temp
2018-Feb-22 08:06N 41°54' E 141°17'113.0
2018-Feb-22 07:59N 41°52' E 141°16'612.9
2018-Feb-22 07:30N 41°46' E 141°13'713.0
2018-Feb-22 06:58N 41°42' E 141°06'714.1
2018-Feb-22 06:30N 41°39' E 140°59'815.3
2018-Feb-22 06:00N 41°35' E 140°50'714.2
2018-Feb-22 05:30N 41°31' E 140°42'714.6
2018-Feb-22 05:00N 41°26' E 140°34'  
2018-Feb-18 07:19N 34°30' E 130°58'512.8
2018-Feb-18 06:56N 34°27' E 130°54'613.0
2018-Feb-18 06:30N 34°23' E 130°48'612.7
2018-Feb-18 06:00N 34°19' E 130°43'612.6
2018-Feb-18 05:30N 34°14' E 130°39'612.7
2018-Feb-18 05:00N 34°09' E 130°34'612.7
2018-Feb-18 04:30N 34°04' E 130°29'612.4
2018-Feb-18 04:01N 33°59' E 130°24'612.2
2018-Feb-18 03:30N 33°55' E 130°19'612.0
2018-Feb-18 03:00N 33°51' E 130°13'612.1
2018-Feb-18 02:31N 33°48' E 130°07'611.9
2018-Feb-18 02:00N 33°45' E 130°01'612.0
2018-Feb-18 01:30N 33°42' E 129°55'1212.6
2018-Feb-18 00:35N 33°36' E 129°43'9 0.2
2018-Feb-16 08:34N 33°41' E 129°52'112.2
2018-Feb-16 08:29N 33°41' E 129°54'712.4
2018-Feb-16 07:57N 33°44' E 130°00'612.5
2018-Feb-16 07:30N 33°47' E 130°06'612.2
2018-Feb-16 07:00N 33°50' E 130°13'612.5
2018-Feb-16 06:30N 33°54' E 130°18'612.4
2018-Feb-16 06:00N 33°57' E 130°25'612.7
2018-Feb-16 05:30N 33°60' E 130°32'612.5
2018-Feb-16 05:00N 34°02' E 130°39'612.3
2018-Feb-16 04:30N 34°03' E 130°46'612.6
2018-Feb-16 04:01N 33°60' E 130°53'611.1
2018-Feb-16 03:30N 33°55' E 130°55'612.9
2018-Feb-16 03:00N 33°59' E 131°01'612.7
2018-Feb-16 02:31N 33°55' E 131°07'612.4
2018-Feb-16 02:00N 33°52' E 131°14'612.8
2018-Feb-16 01:30N 33°51' E 131°21'612.6
2018-Feb-16 01:00N 33°49' E 131°29'612.8
2018-Feb-16 00:31N 33°48' E 131°36'713.1
2018-Feb-16 00:00N 33°46' E 131°44'713.1
2018-Feb-15 23:29N 33°45' E 131°52'713.0
2018-Feb-15 22:59N 33°44' E 131°60'912.0
2018-Feb-15 22:16N 33°43' E 132°10'412.2
2018-Feb-15 21:55N 33°44' E 132°15'712.2
2018-Feb-15 21:19N 33°46' E 132°23'512.4
2018-Feb-15 20:56N 33°48' E 132°28'812.4
2018-Feb-15 20:19N 33°53' E 132°36'413.2
2018-Feb-15 20:00N 33°56' E 132°39'713.3
2018-Feb-15 19:30N 34°01' E 132°45'7511.6
2018-Feb-15 13:04N 34°25' E 134°10'412.9
2018-Feb-15 12:46N 34°24' E 134°15'413.4
2018-Feb-15 12:27N 34°24' E 134°20'613.0
2018-Feb-15 12:00N 34°28' E 134°26'1711.3
2018-Feb-15 10:28N 34°45' E 134°22'0 0.0
2018-Feb-14 23:45N 34°45' E 134°22'2 7.1
2018-Feb-14 23:25N 34°42' E 134°22'2 0.7
2018-Feb-14 21:06N 34°42' E 134°24'0 0.5
2018-Feb-14 21:00N 34°42' E 134°24'0 0.0
2018-Feb-14 20:30N 34°42' E 134°24'0 0.0
2018-Feb-14 19:54N 34°42' E 134°24'0 0.0
2018-Feb-14 19:30N 34°42' E 134°24'4 7.5
2018-Feb-14 19:01N 34°43' E 134°28'713.3
2018-Feb-14 18:30N 34°43' E 134°36'612.6
2018-Feb-14 18:00N 34°40' E 134°43'612.6
2018-Feb-14 17:30N 34°38' E 134°50'611.4
2018-Feb-14 17:00N 34°37' E 134°57'5 9.7
2018-Feb-14 16:30N 34°36' E 135°03'510.6
2018-Feb-14 16:00N 34°32' E 135°06'612.9
2018-Feb-14 15:30N 34°26' E 135°04'713.1
2018-Feb-14 15:00N 34°20' E 135°00'612.1
2018-Feb-14 14:30N 34°14' E 134°59'713.3
2018-Feb-14 14:00N 34°07' E 134°60'713.7
2018-Feb-14 13:30N 34°00' E 135°00'713.4
2018-Feb-14 13:00N 33°54' E 135°02'15410.1
2018-Feb-13 21:45N 34°31' E 138°02'311.4
2018-Feb-13 21:29N 34°31' E 138°05'610.2
2018-Feb-13 20:52N 34°31' E 138°13'410.0
2018-Feb-13 20:29N 34°31' E 138°18'610.1
2018-Feb-13 19:55N 34°31' E 138°25'4 9.5
2018-Feb-13 19:30N 34°31' E 138°30'5 9.7
2018-Feb-13 18:59N 34°31' E 138°36'7 9.6
2018-Feb-13 18:16N 34°31' E 138°44'2 8.6
2018-Feb-13 18:00N 34°31' E 138°47'4 8.4
2018-Feb-13 17:30N 34°31' E 138°52'4 8.6
2018-Feb-13 17:00N 34°32' E 138°57'4 8.7
2018-Feb-13 16:29N 34°35' E 139°00'5 9.3
2018-Feb-13 15:59N 34°39' E 139°04'710.9
2018-Feb-13 15:19N 34°44' E 139°10'411.7
2018-Feb-13 15:00N 34°47' E 139°13'611.8
2018-Feb-13 14:28N 34°51' E 139°18'510.7
2018-Feb-13 13:58N 34°54' E 139°24'510.1
2018-Feb-13 13:29N 34°57' E 139°28'510.9
2018-Feb-13 13:00N 35°00' E 139°34'611.9
2018-Feb-13 12:28N 35°04' E 139°40'512.0
2018-Feb-13 12:00N 35°08' E 139°44'612.8
2018-Feb-13 11:30N 35°14' E 139°46'612.6
2018-Feb-13 11:00N 35°20' E 139°42'611.9
2018-Feb-13 10:30N 35°26' E 139°41'0 0.1
2018-Feb-13 09:57N 35°26' E 139°41'0 0.0
2018-Feb-13 09:30N 35°26' E 139°41'0 0.0
2018-Feb-13 09:00N 35°26' E 139°41'0 0.0
2018-Feb-13 08:30N 35°26' E 139°41'0 0.0
2018-Feb-13 08:00N 35°26' E 139°41'0 0.0
2018-Feb-13 07:30N 35°26' E 139°41'0 0.0
2018-Feb-13 07:00N 35°26' E 139°41'0 0.0
2018-Feb-13 06:30N 35°26' E 139°41'0 0.0
2018-Feb-13 06:00N 35°26' E 139°41'0 0.0
2018-Feb-13 05:30N 35°26' E 139°41'0 0.0
2018-Feb-13 05:00N 35°26' E 139°41'0 0.0
2018-Feb-13 04:30N 35°26' E 139°41'0 0.0
2018-Feb-13 04:00N 35°26' E 139°41'0 0.0
2018-Feb-13 03:30N 35°26' E 139°41'0 0.0
2018-Feb-13 03:00N 35°26' E 139°41'0 0.0
2018-Feb-13 02:30N 35°26' E 139°41'0 0.0
2018-Feb-13 02:00N 35°26' E 139°41'0 0.0
2018-Feb-13 01:30N 35°26' E 139°41'0 0.0
2018-Feb-13 01:00N 35°26' E 139°41'0 0.0
2018-Feb-13 00:30N 35°26' E 139°41'0 0.0
2018-Feb-13 00:00N 35°26' E 139°41'0 0.0
2018-Feb-12 23:30N 35°26' E 139°41'0 0.0
2018-Feb-12 23:00N 35°26' E 139°41'0 0.1
2018-Feb-12 22:30N 35°26' E 139°41'3 6.3
2018-Feb-12 22:00N 35°23' E 139°43'611.8
2018-Feb-12 21:30N 35°17' E 139°45'611.6
2018-Feb-12 20:59N 35°11' E 139°46'612.4
2018-Feb-12 20:30N 35°06' E 139°44'712.2
2018-Feb-12 19:58N 34°60' E 139°40'512.1
2018-Feb-12 19:30N 34°55' E 139°36'813.3
2018-Feb-12 18:54N 34°54' E 139°27'1214.0
2018-Feb-12 18:04N 34°46' E 139°16'113.6
2018-Feb-12 18:00N 34°46' E 139°15'713.6
2018-Feb-12 17:30N 34°41' E 139°09'1313.3
2018-Feb-12 16:33N 34°32' E 138°58'113.3
2018-Feb-12 16:29N 34°31' E 138°57'  

Dump ship's entire track history